sensor_id;sensor_type;location;lat;lon;timestamp;P1;durP1;ratioP1;P2;durP2;ratioP2
3815;SDS011;1923;48.154;11.536;2022-11-27T12:02:12;10.30;;;7.17;;
3815;SDS011;1923;48.154;11.536;2022-11-27T12:05:14;8.60;;;6.70;;
3815;SDS011;1923;48.154;11.536;2022-11-27T12:08:00;11.83;;;7.57;;
3815;SDS011;1923;48.154;11.536;2022-11-27T12:11:11;8.93;;;5.70;;
3815;SDS011;1923;48.154;11.536;2022-11-27T12:13:46;10.37;;;6.27;;
3815;SDS011;1923;48.154;11.536;2022-11-27T12:16:25;10.73;;;5.93;;
3815;SDS011;1923;48.154;11.536;2022-11-27T12:19:07;9.60;;;6.60;;
3815;SDS011;1923;48.154;11.536;2022-11-27T12:21:55;10.07;;;6.47;;
3815;SDS011;1923;48.154;11.536;2022-11-27T12:24:36;10.10;;;6.70;;
3815;SDS011;1923;48.154;11.536;2022-11-27T12:27:14;8.00;;;6.17;;
3815;SDS011;1923;48.154;11.536;2022-11-27T12:30:02;7.97;;;5.70;;
3815;SDS011;1923;48.154;11.536;2022-11-27T12:35:31;9.20;;;6.80;;
3815;SDS011;1923;48.154;11.536;2022-11-27T12:38:12;8.53;;;6.70;;
3815;SDS011;1923;48.154;11.536;2022-11-27T12:40:57;9.07;;;7.00;;
3815;SDS011;1923;48.154;11.536;2022-11-27T12:43:45;11.20;;;7.70;;
3815;SDS011;1923;48.154;11.536;2022-11-27T12:46:17;10.97;;;7.33;;
3815;SDS011;1923;48.154;11.536;2022-11-27T12:48:54;12.27;;;8.13;;
3815;SDS011;1923;48.154;11.536;2022-11-27T12:51:28;11.70;;;7.53;;
3815;SDS011;1923;48.154;11.536;2022-11-27T12:54:00;9.65;;;5.60;;
3815;SDS011;1923;48.154;11.536;2022-11-27T12:56:34;12.70;;;7.80;;
3815;SDS011;1923;48.154;11.536;2022-11-27T12:59:08;10.93;;;7.00;;
3815;SDS011;1923;48.154;11.536;2022-11-27T13:01:44;11.67;;;7.50;;
3815;SDS011;1923;48.154;11.536;2022-11-27T13:04:17;9.93;;;5.80;;
3815;SDS011;1923;48.154;11.536;2022-11-27T13:06:51;10.83;;;6.50;;
3815;SDS011;1923;48.154;11.536;2022-11-27T13:09:25;12.07;;;6.77;;
3815;SDS011;1923;48.154;11.536;2022-11-27T13:12:00;11.82;;;7.10;;
3815;SDS011;1923;48.154;11.536;2022-11-27T13:14:29;11.47;;;7.47;;
3815;SDS011;1923;48.154;11.536;2022-11-27T13:17:02;15.13;;;8.93;;
3815;SDS011;1923;48.154;11.536;2022-11-27T13:19:34;11.37;;;7.50;;
3815;SDS011;1923;48.154;11.536;2022-11-27T13:22:09;9.90;;;6.33;;
3815;SDS011;1923;48.154;11.536;2022-11-27T13:24:40;8.93;;;6.47;;
3815;SDS011;1923;48.154;11.536;2022-11-27T13:27:09;14.60;;;7.90;;
3815;SDS011;1923;48.154;11.536;2022-11-27T13:29:43;10.50;;;6.90;;
3815;SDS011;1923;48.154;11.536;2022-11-27T13:32:17;12.43;;;7.53;;
3815;SDS011;1923;48.154;11.536;2022-11-27T13:34:47;11.93;;;7.07;;
3815;SDS011;1923;48.154;11.536;2022-11-27T13:37:23;12.10;;;7.77;;
3815;SDS011;1923;48.154;11.536;2022-11-27T13:39:58;13.30;;;7.90;;
3815;SDS011;1923;48.154;11.536;2022-11-27T13:42:29;13.30;;;7.97;;
3815;SDS011;1923;48.154;11.536;2022-11-27T13:45:00;14.23;;;7.83;;
3815;SDS011;1923;48.154;11.536;2022-11-27T13:47:34;11.87;;;7.73;;
3815;SDS011;1923;48.154;11.536;2022-11-27T13:50:05;17.20;;;8.80;;
3815;SDS011;1923;48.154;11.536;2022-11-27T13:52:47;13.13;;;8.03;;
3815;SDS011;1923;48.154;11.536;2022-11-27T13:55:21;12.13;;;8.47;;
3815;SDS011;1923;48.154;11.536;2022-11-27T13:57:52;13.02;;;6.90;;
3815;SDS011;1923;48.154;11.536;2022-11-27T14:00:29;13.00;;;8.23;;
3815;SDS011;1923;48.154;11.536;2022-11-27T14:02:59;20.50;;;11.13;;
3815;SDS011;1923;48.154;11.536;2022-11-27T14:05:35;12.40;;;8.23;;
3815;SDS011;1923;48.154;11.536;2022-11-27T14:08:17;11.30;;;7.70;;
3815;SDS011;1923;48.154;11.536;2022-11-27T14:10:48;13.83;;;8.03;;
3815;SDS011;1923;48.154;11.536;2022-11-27T14:13:20;13.32;;;7.60;;
3815;SDS011;1923;48.154;11.536;2022-11-27T14:15:57;11.77;;;7.20;;
3815;SDS011;1923;48.154;11.536;2022-11-27T14:18:27;12.50;;;8.17;;
3815;SDS011;1923;48.154;11.536;2022-11-27T14:20:58;16.73;;;10.43;;
3815;SDS011;1923;48.154;11.536;2022-11-27T14:23:30;14.20;;;7.50;;
3815;SDS011;1923;48.154;11.536;2022-11-27T14:26:02;16.53;;;7.70;;
3815;SDS011;1923;48.154;11.536;2022-11-27T14:28:39;15.40;;;9.00;;
3815;SDS011;1923;48.154;11.536;2022-11-27T14:31:17;18.70;;;9.80;;
3815;SDS011;1923;48.154;11.536;2022-11-27T14:33:50;17.17;;;9.07;;
3815;SDS011;1923;48.154;11.536;2022-11-27T14:36:39;16.08;;;8.00;;
3815;SDS011;1923;48.154;11.536;2022-11-27T14:39:19;13.03;;;7.47;;
3815;SDS011;1923;48.154;11.536;2022-11-27T14:41:54;14.70;;;8.33;;
3815;SDS011;1923;48.154;11.536;2022-11-27T14:44:23;14.50;;;8.70;;
3815;SDS011;1923;48.154;11.536;2022-11-27T14:46:51;23.73;;;11.23;;
3815;SDS011;1923;48.154;11.536;2022-11-27T14:49:22;19.87;;;10.00;;
3815;SDS011;1923;48.154;11.536;2022-11-27T14:51:51;17.30;;;10.73;;
3815;SDS011;1923;48.154;11.536;2022-11-27T14:54:23;15.23;;;9.13;;
3815;SDS011;1923;48.154;11.536;2022-11-27T14:56:53;17.03;;;10.17;;
3815;SDS011;1923;48.154;11.536;2022-11-27T14:59:22;15.13;;;8.50;;
3815;SDS011;1923;48.154;11.536;2022-11-27T15:01:57;16.40;;;9.50;;
3815;SDS011;1923;48.154;11.536;2022-11-27T15:04:28;14.00;;;9.30;;
3815;SDS011;1923;48.154;11.536;2022-11-27T15:07:00;20.63;;;10.53;;
3815;SDS011;1923;48.154;11.536;2022-11-27T15:09:34;16.23;;;9.17;;
3815;SDS011;1923;48.154;11.536;2022-11-27T15:12:05;16.03;;;9.50;;
3815;SDS011;1923;48.154;11.536;2022-11-27T15:14:43;18.33;;;10.23;;
3815;SDS011;1923;48.154;11.536;2022-11-27T15:17:14;19.77;;;11.50;;
3815;SDS011;1923;48.154;11.536;2022-11-27T15:19:43;20.95;;;10.75;;
3815;SDS011;1923;48.154;11.536;2022-11-27T15:22:16;19.00;;;10.00;;
3815;SDS011;1923;48.154;11.536;2022-11-27T15:24:46;20.60;;;11.77;;
3815;SDS011;1923;48.154;11.536;2022-11-27T15:27:26;17.67;;;9.83;;
3815;SDS011;1923;48.154;11.536;2022-11-27T15:29:59;26.03;;;13.20;;
3815;SDS011;1923;48.154;11.536;2022-11-27T15:32:33;19.90;;;11.63;;
3815;SDS011;1923;48.154;11.536;2022-11-27T15:35:20;20.90;;;10.40;;
3815;SDS011;1923;48.154;11.536;2022-11-27T15:37:51;17.60;;;10.83;;
3815;SDS011;1923;48.154;11.536;2022-11-27T15:40:25;18.00;;;9.33;;
3815;SDS011;1923;48.154;11.536;2022-11-27T15:42:55;16.47;;;9.63;;
3815;SDS011;1923;48.154;11.536;2022-11-27T15:45:25;17.63;;;10.57;;
3815;SDS011;1923;48.154;11.536;2022-11-27T15:47:56;20.70;;;11.50;;
3815;SDS011;1923;48.154;11.536;2022-11-27T15:50:26;18.23;;;9.93;;
3815;SDS011;1923;48.154;11.536;2022-11-27T15:52:55;17.63;;;9.50;;
3815;SDS011;1923;48.154;11.536;2022-11-27T15:55:24;16.70;;;9.00;;
3815;SDS011;1923;48.154;11.536;2022-11-27T15:57:52;17.50;;;9.73;;
3815;SDS011;1923;48.154;11.536;2022-11-27T16:00:20;14.27;;;10.17;;
3815;SDS011;1923;48.154;11.536;2022-11-27T16:02:49;18.70;;;10.30;;
3815;SDS011;1923;48.154;11.536;2022-11-27T16:05:17;17.30;;;10.50;;
3815;SDS011;1923;48.154;11.536;2022-11-27T16:07:46;16.30;;;10.50;;
3815;SDS011;1923;48.154;11.536;2022-11-27T16:10:20;20.87;;;10.57;;
3815;SDS011;1923;48.154;11.536;2022-11-27T16:12:50;17.90;;;10.70;;
3815;SDS011;1923;48.154;11.536;2022-11-27T16:15:20;17.73;;;10.40;;
3815;SDS011;1923;48.154;11.536;2022-11-27T16:17:53;16.13;;;10.23;;
3815;SDS011;1923;48.154;11.536;2022-11-27T16:20:22;18.02;;;10.77;;
3815;SDS011;1923;48.154;11.536;2022-11-27T16:22:50;19.70;;;11.80;;
3815;SDS011;1923;48.154;11.536;2022-11-27T16:25:18;17.13;;;11.67;;
3815;SDS011;1923;48.154;11.536;2022-11-27T16:27:46;18.93;;;10.90;;
3815;SDS011;1923;48.154;11.536;2022-11-27T16:30:16;22.20;;;11.60;;
3815;SDS011;1923;48.154;11.536;2022-11-27T16:32:45;17.73;;;10.90;;
3815;SDS011;1923;48.154;11.536;2022-11-27T16:35:14;17.43;;;10.40;;
3815;SDS011;1923;48.154;11.536;2022-11-27T16:37:42;20.27;;;11.17;;
3815;SDS011;1923;48.154;11.536;2022-11-27T16:40:11;20.33;;;11.73;;
3815;SDS011;1923;48.154;11.536;2022-11-27T16:42:40;21.73;;;11.00;;
3815;SDS011;1923;48.154;11.536;2022-11-27T16:45:08;18.90;;;11.67;;
3815;SDS011;1923;48.154;11.536;2022-11-27T16:47:38;17.90;;;10.10;;
3815;SDS011;1923;48.154;11.536;2022-11-27T16:50:07;19.30;;;10.10;;
3815;SDS011;1923;48.154;11.536;2022-11-27T16:52:36;18.07;;;11.20;;
3815;SDS011;1923;48.154;11.536;2022-11-27T16:55:04;21.83;;;10.93;;
3815;SDS011;1923;48.154;11.536;2022-11-27T16:57:33;18.60;;;10.50;;
3815;SDS011;1923;48.154;11.536;2022-11-27T17:00:01;20.80;;;12.27;;
3815;SDS011;1923;48.154;11.536;2022-11-27T17:02:30;19.13;;;10.80;;
3815;SDS011;1923;48.154;11.536;2022-11-27T17:04:59;15.73;;;10.13;;
3815;SDS011;1923;48.154;11.536;2022-11-27T17:07:29;26.23;;;12.03;;
3815;SDS011;1923;48.154;11.536;2022-11-27T17:09:57;23.20;;;11.03;;
3815;SDS011;1923;48.154;11.536;2022-11-27T17:12:25;20.37;;;10.10;;
3815;SDS011;1923;48.154;11.536;2022-11-27T17:14:53;21.47;;;10.10;;
3815;SDS011;1923;48.154;11.536;2022-11-27T17:17:21;18.50;;;9.80;;
3815;SDS011;1923;48.154;11.536;2022-11-27T17:19:49;19.20;;;10.40;;
3815;SDS011;1923;48.154;11.536;2022-11-27T17:22:21;20.93;;;10.33;;
3815;SDS011;1923;48.154;11.536;2022-11-27T17:24:59;17.20;;;9.47;;
3815;SDS011;1923;48.154;11.536;2022-11-27T17:27:27;18.20;;;9.93;;
3815;SDS011;1923;48.154;11.536;2022-11-27T17:29:55;18.30;;;11.37;;
3815;SDS011;1923;48.154;11.536;2022-11-27T17:32:24;19.30;;;10.60;;
3815;SDS011;1923;48.154;11.536;2022-11-27T17:34:52;19.90;;;10.90;;
3815;SDS011;1923;48.154;11.536;2022-11-27T17:37:21;19.27;;;9.90;;
3815;SDS011;1923;48.154;11.536;2022-11-27T17:39:49;17.80;;;9.90;;
3815;SDS011;1923;48.154;11.536;2022-11-27T17:42:18;18.40;;;11.03;;
3815;SDS011;1923;48.154;11.536;2022-11-27T17:44:48;19.50;;;11.17;;
3815;SDS011;1923;48.154;11.536;2022-11-27T17:47:17;18.63;;;11.00;;
3815;SDS011;1923;48.154;11.536;2022-11-27T17:49:44;19.33;;;10.03;;
3815;SDS011;1923;48.154;11.536;2022-11-27T17:52:13;19.03;;;11.47;;
3815;SDS011;1923;48.154;11.536;2022-11-27T17:54:42;17.50;;;10.97;;
3815;SDS011;1923;48.154;11.536;2022-11-27T17:57:10;16.73;;;8.80;;
3815;SDS011;1923;48.154;11.536;2022-11-27T17:59:38;19.23;;;10.77;;
3815;SDS011;1923;48.154;11.536;2022-11-27T18:02:07;18.08;;;8.32;;
3815;SDS011;1923;48.154;11.536;2022-11-27T18:04:37;16.13;;;9.17;;
3815;SDS011;1923;48.154;11.536;2022-11-27T18:07:05;17.77;;;9.57;;
3815;SDS011;1923;48.154;11.536;2022-11-27T18:09:33;15.27;;;8.10;;
3815;SDS011;1923;48.154;11.536;2022-11-27T18:12:03;14.53;;;8.60;;
3815;SDS011;1923;48.154;11.536;2022-11-27T18:14:33;18.53;;;11.33;;
3815;SDS011;1923;48.154;11.536;2022-11-27T18:17:01;16.37;;;10.20;;
3815;SDS011;1923;48.154;11.536;2022-11-27T18:19:32;16.77;;;9.93;;
3815;SDS011;1923;48.154;11.536;2022-11-27T18:22:00;17.27;;;11.17;;
3815;SDS011;1923;48.154;11.536;2022-11-27T18:24:28;16.17;;;10.20;;
3815;SDS011;1923;48.154;11.536;2022-11-27T18:26:56;18.80;;;10.77;;
3815;SDS011;1923;48.154;11.536;2022-11-27T18:29:35;18.03;;;12.37;;
3815;SDS011;1923;48.154;11.536;2022-11-27T18:32:06;16.02;;;9.77;;
3815;SDS011;1923;48.154;11.536;2022-11-27T18:34:35;16.60;;;9.13;;
3815;SDS011;1923;48.154;11.536;2022-11-27T18:37:03;20.13;;;11.50;;
3815;SDS011;1923;48.154;11.536;2022-11-27T18:39:32;17.93;;;11.17;;
3815;SDS011;1923;48.154;11.536;2022-11-27T18:42:00;16.47;;;9.93;;
3815;SDS011;1923;48.154;11.536;2022-11-27T18:44:30;17.40;;;10.90;;
3815;SDS011;1923;48.154;11.536;2022-11-27T18:46:59;18.70;;;10.27;;
3815;SDS011;1923;48.154;11.536;2022-11-27T18:49:29;17.27;;;10.03;;
3815;SDS011;1923;48.154;11.536;2022-11-27T18:51:58;20.73;;;11.97;;
3815;SDS011;1923;48.154;11.536;2022-11-27T18:54:26;15.30;;;9.30;;
3815;SDS011;1923;48.154;11.536;2022-11-27T18:56:54;19.40;;;11.03;;
3815;SDS011;1923;48.154;11.536;2022-11-27T18:59:22;20.37;;;10.50;;
3815;SDS011;1923;48.154;11.536;2022-11-27T19:01:50;18.52;;;9.60;;
3815;SDS011;1923;48.154;11.536;2022-11-27T19:04:20;17.30;;;9.00;;
3815;SDS011;1923;48.154;11.536;2022-11-27T19:06:48;13.90;;;8.30;;
3815;SDS011;1923;48.154;11.536;2022-11-27T19:09:16;18.20;;;9.97;;
3815;SDS011;1923;48.154;11.536;2022-11-27T19:11:44;18.43;;;9.83;;
3815;SDS011;1923;48.154;11.536;2022-11-27T19:14:16;17.80;;;10.20;;
3815;SDS011;1923;48.154;11.536;2022-11-27T19:16:43;18.33;;;10.87;;
3815;SDS011;1923;48.154;11.536;2022-11-27T19:19:13;17.30;;;10.10;;
3815;SDS011;1923;48.154;11.536;2022-11-27T19:22:06;16.60;;;10.80;;
3815;SDS011;1923;48.154;11.536;2022-11-27T19:24:34;18.33;;;10.23;;
3815;SDS011;1923;48.154;11.536;2022-11-27T19:27:03;19.33;;;11.97;;
3815;SDS011;1923;48.154;11.536;2022-11-27T19:29:31;20.20;;;10.30;;
3815;SDS011;1923;48.154;11.536;2022-11-27T19:31:59;16.87;;;10.03;;
3815;SDS011;1923;48.154;11.536;2022-11-27T19:34:27;18.60;;;10.73;;
3815;SDS011;1923;48.154;11.536;2022-11-27T19:36:55;22.90;;;11.00;;
3815;SDS011;1923;48.154;11.536;2022-11-27T19:39:25;18.43;;;11.07;;
3815;SDS011;1923;48.154;11.536;2022-11-27T19:41:54;18.87;;;10.70;;
3815;SDS011;1923;48.154;11.536;2022-11-27T19:44:23;18.17;;;9.90;;
3815;SDS011;1923;48.154;11.536;2022-11-27T19:46:51;18.30;;;10.63;;
3815;SDS011;1923;48.154;11.536;2022-11-27T19:49:19;18.13;;;10.20;;
3815;SDS011;1923;48.154;11.536;2022-11-27T19:51:47;20.90;;;10.70;;
3815;SDS011;1923;48.154;11.536;2022-11-27T19:54:16;20.50;;;11.60;;
3815;SDS011;1923;48.154;11.536;2022-11-27T19:56:46;18.63;;;10.93;;
3815;SDS011;1923;48.154;11.536;2022-11-27T19:59:14;18.10;;;9.70;;
3815;SDS011;1923;48.154;11.536;2022-11-27T20:01:49;19.63;;;9.93;;
3815;SDS011;1923;48.154;11.536;2022-11-27T20:04:17;20.60;;;10.60;;
3815;SDS011;1923;48.154;11.536;2022-11-27T20:06:48;20.23;;;11.70;;
3815;SDS011;1923;48.154;11.536;2022-11-27T20:09:17;22.03;;;12.27;;
3815;SDS011;1923;48.154;11.536;2022-11-27T20:11:46;22.57;;;11.23;;
3815;SDS011;1923;48.154;11.536;2022-11-27T20:14:14;21.57;;;12.97;;
3815;SDS011;1923;48.154;11.536;2022-11-27T20:16:42;22.00;;;12.17;;
3815;SDS011;1923;48.154;11.536;2022-11-27T20:19:10;20.90;;;11.30;;
3815;SDS011;1923;48.154;11.536;2022-11-27T20:21:39;23.90;;;11.70;;
3815;SDS011;1923;48.154;11.536;2022-11-27T20:24:07;19.03;;;11.53;;
3815;SDS011;1923;48.154;11.536;2022-11-27T20:26:36;22.00;;;12.93;;
3815;SDS011;1923;48.154;11.536;2022-11-27T20:29:09;17.40;;;11.67;;
3815;SDS011;1923;48.154;11.536;2022-11-27T20:31:39;22.57;;;12.70;;
3815;SDS011;1923;48.154;11.536;2022-11-27T20:34:09;19.73;;;11.80;;
3815;SDS011;1923;48.154;11.536;2022-11-27T20:36:41;20.33;;;12.20;;
3815;SDS011;1923;48.154;11.536;2022-11-27T20:39:09;24.07;;;12.03;;
3815;SDS011;1923;48.154;11.536;2022-11-27T20:41:46;20.80;;;10.90;;
3815;SDS011;1923;48.154;11.536;2022-11-27T20:44:16;22.10;;;12.30;;
3815;SDS011;1923;48.154;11.536;2022-11-27T20:46:44;20.83;;;12.00;;
3815;SDS011;1923;48.154;11.536;2022-11-27T20:49:12;26.10;;;13.80;;
3815;SDS011;1923;48.154;11.536;2022-11-27T20:51:40;21.80;;;12.07;;
3815;SDS011;1923;48.154;11.536;2022-11-27T20:54:09;19.83;;;11.37;;
3815;SDS011;1923;48.154;11.536;2022-11-27T20:56:38;19.07;;;10.90;;
3815;SDS011;1923;48.154;11.536;2022-11-27T20:59:08;22.50;;;12.70;;
3815;SDS011;1923;48.154;11.536;2022-11-27T21:01:39;24.13;;;12.57;;
3815;SDS011;1923;48.154;11.536;2022-11-27T21:04:08;20.77;;;11.20;;
3815;SDS011;1923;48.154;11.536;2022-11-27T21:06:45;19.20;;;11.70;;
3815;SDS011;1923;48.154;11.536;2022-11-27T21:09:13;22.27;;;12.43;;
3815;SDS011;1923;48.154;11.536;2022-11-27T21:11:41;18.70;;;10.50;;
3815;SDS011;1923;48.154;11.536;2022-11-27T21:14:10;18.67;;;10.73;;
3815;SDS011;1923;48.154;11.536;2022-11-27T21:16:42;20.77;;;11.57;;
3815;SDS011;1923;48.154;11.536;2022-11-27T21:19:12;21.37;;;11.70;;
3815;SDS011;1923;48.154;11.536;2022-11-27T21:21:41;22.40;;;11.70;;
3815;SDS011;1923;48.154;11.536;2022-11-27T21:24:11;22.80;;;12.10;;
3815;SDS011;1923;48.154;11.536;2022-11-27T21:26:39;22.07;;;12.63;;
3815;SDS011;1923;48.154;11.536;2022-11-27T21:29:08;20.90;;;11.37;;
3815;SDS011;1923;48.154;11.536;2022-11-27T21:31:38;20.20;;;11.80;;
3815;SDS011;1923;48.154;11.536;2022-11-27T21:34:12;21.10;;;11.10;;
3815;SDS011;1923;48.154;11.536;2022-11-27T21:36:41;19.23;;;10.53;;
3815;SDS011;1923;48.154;11.536;2022-11-27T21:39:09;15.53;;;10.07;;
3815;SDS011;1923;48.154;11.536;2022-11-27T21:41:39;16.20;;;10.30;;
3815;SDS011;1923;48.154;11.536;2022-11-27T21:44:07;18.17;;;10.90;;
3815;SDS011;1923;48.154;11.536;2022-11-27T21:46:35;18.02;;;9.30;;
3815;SDS011;1923;48.154;11.536;2022-11-27T21:49:05;16.87;;;10.87;;
3815;SDS011;1923;48.154;11.536;2022-11-27T21:51:33;20.42;;;10.35;;
3815;SDS011;1923;48.154;11.536;2022-11-27T21:54:04;15.35;;;8.60;;
3815;SDS011;1923;48.154;11.536;2022-11-27T21:56:33;18.73;;;10.70;;
3815;SDS011;1923;48.154;11.536;2022-11-27T21:59:04;16.60;;;10.10;;
3815;SDS011;1923;48.154;11.536;2022-11-27T22:01:32;17.53;;;10.47;;
3815;SDS011;1923;48.154;11.536;2022-11-27T22:04:01;16.73;;;9.60;;
3815;SDS011;1923;48.154;11.536;2022-11-27T22:06:34;18.77;;;10.93;;
3815;SDS011;1923;48.154;11.536;2022-11-27T22:09:04;21.60;;;12.10;;
3815;SDS011;1923;48.154;11.536;2022-11-27T22:11:40;18.77;;;10.63;;
3815;SDS011;1923;48.154;11.536;2022-11-27T22:14:08;18.65;;;9.30;;
3815;SDS011;1923;48.154;11.536;2022-11-27T22:16:37;20.63;;;10.27;;
3815;SDS011;1923;48.154;11.536;2022-11-27T22:19:11;19.97;;;10.67;;
3815;SDS011;1923;48.154;11.536;2022-11-27T22:21:41;18.97;;;10.03;;
3815;SDS011;1923;48.154;11.536;2022-11-27T22:24:10;17.20;;;10.57;;
3815;SDS011;1923;48.154;11.536;2022-11-27T22:26:45;17.73;;;10.83;;
3815;SDS011;1923;48.154;11.536;2022-11-27T22:29:13;19.70;;;10.37;;
3815;SDS011;1923;48.154;11.536;2022-11-27T22:31:41;19.35;;;8.63;;
3815;SDS011;1923;48.154;11.536;2022-11-27T22:34:09;16.23;;;9.00;;
3815;SDS011;1923;48.154;11.536;2022-11-27T22:36:37;17.33;;;9.40;;
3815;SDS011;1923;48.154;11.536;2022-11-27T22:39:07;17.63;;;9.03;;
3815;SDS011;1923;48.154;11.536;2022-11-27T22:41:35;18.60;;;8.27;;
3815;SDS011;1923;48.154;11.536;2022-11-27T22:44:05;19.47;;;10.30;;
3815;SDS011;1923;48.154;11.536;2022-11-27T22:46:33;18.60;;;10.37;;
3815;SDS011;1923;48.154;11.536;2022-11-27T22:49:03;19.70;;;10.73;;
3815;SDS011;1923;48.154;11.536;2022-11-27T22:51:33;18.50;;;9.17;;
3815;SDS011;1923;48.154;11.536;2022-11-27T22:54:02;19.13;;;9.70;;
3815;SDS011;1923;48.154;11.536;2022-11-27T22:56:33;15.00;;;8.70;;
3815;SDS011;1923;48.154;11.536;2022-11-27T22:59:02;18.80;;;10.77;;
3815;SDS011;1923;48.154;11.536;2022-11-27T23:01:51;16.03;;;8.90;;
3815;SDS011;1923;48.154;11.536;2022-11-27T23:04:20;18.67;;;11.00;;
3815;SDS011;1923;48.154;11.536;2022-11-27T23:06:48;13.77;;;8.70;;
3815;SDS011;1923;48.154;11.536;2022-11-27T23:09:16;17.27;;;9.47;;
3815;SDS011;1923;48.154;11.536;2022-11-27T23:11:46;12.83;;;7.67;;
3815;SDS011;1923;48.154;11.536;2022-11-27T23:14:14;17.40;;;9.67;;
3815;SDS011;1923;48.154;11.536;2022-11-27T23:16:43;16.17;;;9.10;;
3815;SDS011;1923;48.154;11.536;2022-11-27T23:19:11;16.00;;;10.50;;
3815;SDS011;1923;48.154;11.536;2022-11-27T23:21:39;16.37;;;10.10;;
3815;SDS011;1923;48.154;11.536;2022-11-27T23:24:09;16.13;;;9.87;;
3815;SDS011;1923;48.154;11.536;2022-11-27T23:26:38;19.30;;;10.53;;
3815;SDS011;1923;48.154;11.536;2022-11-27T23:29:08;15.40;;;9.37;;
3815;SDS011;1923;48.154;11.536;2022-11-27T23:31:36;17.97;;;9.80;;
3815;SDS011;1923;48.154;11.536;2022-11-27T23:34:05;15.90;;;8.90;;
3815;SDS011;1923;48.154;11.536;2022-11-27T23:36:35;17.00;;;9.40;;
3815;SDS011;1923;48.154;11.536;2022-11-27T23:39:04;16.97;;;9.33;;
3815;SDS011;1923;48.154;11.536;2022-11-27T23:41:33;18.60;;;10.40;;
3815;SDS011;1923;48.154;11.536;2022-11-27T23:44:01;19.57;;;10.63;;
3815;SDS011;1923;48.154;11.536;2022-11-27T23:46:30;14.87;;;9.30;;
3815;SDS011;1923;48.154;11.536;2022-11-27T23:48:59;17.97;;;9.03;;
3815;SDS011;1923;48.154;11.536;2022-11-27T23:51:27;15.10;;;9.30;;
3815;SDS011;1923;48.154;11.536;2022-11-27T23:53:57;17.33;;;10.23;;
3815;SDS011;1923;48.154;11.536;2022-11-27T23:56:26;19.97;;;10.50;;
3815;SDS011;1923;48.154;11.536;2022-11-27T23:58:55;15.43;;;9.37;;
